sensor_id;sensor_type;location;lat;lon;timestamp;P1;durP1;ratioP1;P2;durP2;ratioP2
51556;SDS011;38766;53.194;5.532;2022-08-11T00:00:36;9.07;;;5.90;;
51556;SDS011;38766;53.194;5.532;2022-08-11T00:03:10;11.82;;;5.85;;
51556;SDS011;38766;53.194;5.532;2022-08-11T00:05:44;9.60;;;5.55;;
51556;SDS011;38766;53.194;5.532;2022-08-11T00:10:45;7.63;;;5.85;;
51556;SDS011;38766;53.194;5.532;2022-08-11T00:13:20;12.63;;;6.43;;
51556;SDS011;38766;53.194;5.532;2022-08-11T00:15:47;8.85;;;6.07;;
51556;SDS011;38766;53.194;5.532;2022-08-11T00:18:13;7.55;;;6.38;;
51556;SDS011;38766;53.194;5.532;2022-08-11T00:20:41;10.05;;;6.22;;
51556;SDS011;38766;53.194;5.532;2022-08-11T00:23:09;8.23;;;6.00;;
51556;SDS011;38766;53.194;5.532;2022-08-11T00:25:41;8.52;;;6.07;;
51556;SDS011;38766;53.194;5.532;2022-08-11T00:28:22;10.07;;;6.95;;
51556;SDS011;38766;53.194;5.532;2022-08-11T00:30:48;11.05;;;6.40;;
51556;SDS011;38766;53.194;5.532;2022-08-11T00:33:16;9.90;;;6.68;;
51556;SDS011;38766;53.194;5.532;2022-08-11T00:35:42;7.78;;;6.68;;
51556;SDS011;38766;53.194;5.532;2022-08-11T00:38:09;9.48;;;6.82;;
51556;SDS011;38766;53.194;5.532;2022-08-11T00:40:36;12.65;;;8.13;;
51556;SDS011;38766;53.194;5.532;2022-08-11T00:43:19;11.55;;;7.38;;
51556;SDS011;38766;53.194;5.532;2022-08-11T00:46:13;10.82;;;7.40;;
51556;SDS011;38766;53.194;5.532;2022-08-11T00:51:54;11.77;;;7.85;;
51556;SDS011;38766;53.194;5.532;2022-08-11T00:54:56;8.27;;;6.80;;
51556;SDS011;38766;53.194;5.532;2022-08-11T01:05:46;9.13;;;7.65;;
51556;SDS011;38766;53.194;5.532;2022-08-11T01:36:01;9.85;;;7.78;;
51556;SDS011;38766;53.194;5.532;2022-08-11T01:50:12;9.68;;;7.82;;
51556;SDS011;38766;53.194;5.532;2022-08-11T01:53:03;9.40;;;7.53;;
51556;SDS011;38766;53.194;5.532;2022-08-11T02:15:10;9.93;;;7.40;;
51556;SDS011;38766;53.194;5.532;2022-08-11T02:20:55;9.05;;;6.82;;
51556;SDS011;38766;53.194;5.532;2022-08-11T02:38:10;8.27;;;7.22;;
51556;SDS011;38766;53.194;5.532;2022-08-11T02:40:21;11.25;;;7.47;;
51556;SDS011;38766;53.194;5.532;2022-08-11T02:45:55;9.18;;;6.97;;
51556;SDS011;38766;53.194;5.532;2022-08-11T02:53:02;13.95;;;6.72;;
51556;SDS011;38766;53.194;5.532;2022-08-11T02:55:17;9.07;;;6.75;;
51556;SDS011;38766;53.194;5.532;2022-08-11T02:57:48;8.38;;;6.30;;
51556;SDS011;38766;53.194;5.532;2022-08-11T03:00:23;10.48;;;6.32;;
51556;SDS011;38766;53.194;5.532;2022-08-11T03:08:38;9.20;;;6.65;;
51556;SDS011;38766;53.194;5.532;2022-08-11T03:11:25;10.45;;;6.90;;
51556;SDS011;38766;53.194;5.532;2022-08-11T03:20:35;13.07;;;6.20;;
51556;SDS011;38766;53.194;5.532;2022-08-11T03:26:00;12.73;;;7.07;;
51556;SDS011;38766;53.194;5.532;2022-08-11T03:28:44;9.98;;;6.85;;
51556;SDS011;38766;53.194;5.532;2022-08-11T03:34:02;9.68;;;6.70;;
51556;SDS011;38766;53.194;5.532;2022-08-11T03:43:02;8.25;;;6.47;;
51556;SDS011;38766;53.194;5.532;2022-08-11T03:46:16;12.77;;;7.00;;
51556;SDS011;38766;53.194;5.532;2022-08-11T03:48:42;9.73;;;6.63;;
51556;SDS011;38766;53.194;5.532;2022-08-11T03:51:18;9.18;;;6.07;;
51556;SDS011;38766;53.194;5.532;2022-08-11T03:54:25;9.98;;;6.88;;
51556;SDS011;38766;53.194;5.532;2022-08-11T03:57:28;11.15;;;6.90;;
51556;SDS011;38766;53.194;5.532;2022-08-11T04:11:45;9.50;;;6.97;;
51556;SDS011;38766;53.194;5.532;2022-08-11T04:36:50;8.07;;;7.00;;
51556;SDS011;38766;53.194;5.532;2022-08-11T04:54:52;9.95;;;6.80;;
51556;SDS011;38766;53.194;5.532;2022-08-11T05:00:55;10.63;;;7.32;;
51556;SDS011;38766;53.194;5.532;2022-08-11T05:12:27;12.20;;;7.18;;
51556;SDS011;38766;53.194;5.532;2022-08-11T05:15:12;9.25;;;7.43;;
51556;SDS011;38766;53.194;5.532;2022-08-11T05:20:57;11.90;;;8.10;;
51556;SDS011;38766;53.194;5.532;2022-08-11T05:23:52;10.00;;;7.43;;
51556;SDS011;38766;53.194;5.532;2022-08-11T05:26:43;9.35;;;7.95;;
51556;SDS011;38766;53.194;5.532;2022-08-11T05:29:38;9.38;;;7.50;;
51556;SDS011;38766;53.194;5.532;2022-08-11T05:32:38;11.52;;;8.75;;
51556;SDS011;38766;53.194;5.532;2022-08-11T05:35:30;11.48;;;7.97;;
51556;SDS011;38766;53.194;5.532;2022-08-11T05:38:08;13.70;;;8.52;;
51556;SDS011;38766;53.194;5.532;2022-08-11T05:40:59;18.10;;;10.00;;
51556;SDS011;38766;53.194;5.532;2022-08-11T05:43:45;13.80;;;8.43;;
51556;SDS011;38766;53.194;5.532;2022-08-11T05:46:30;17.25;;;9.20;;
51556;SDS011;38766;53.194;5.532;2022-08-11T05:49:28;14.07;;;8.57;;
51556;SDS011;38766;53.194;5.532;2022-08-11T05:52:15;12.48;;;8.60;;
51556;SDS011;38766;53.194;5.532;2022-08-11T05:55:03;13.68;;;8.80;;
51556;SDS011;38766;53.194;5.532;2022-08-11T05:57:53;12.23;;;9.02;;
51556;SDS011;38766;53.194;5.532;2022-08-11T06:00:20;12.45;;;8.52;;
51556;SDS011;38766;53.194;5.532;2022-08-11T06:02:49;11.68;;;9.05;;
51556;SDS011;38766;53.194;5.532;2022-08-11T06:05:19;14.35;;;8.48;;
51556;SDS011;38766;53.194;5.532;2022-08-11T06:07:45;12.85;;;9.07;;
51556;SDS011;38766;53.194;5.532;2022-08-11T06:10:12;12.27;;;8.57;;
51556;SDS011;38766;53.194;5.532;2022-08-11T06:12:49;14.90;;;8.35;;
51556;SDS011;38766;53.194;5.532;2022-08-11T06:15:17;12.27;;;9.15;;
51556;SDS011;38766;53.194;5.532;2022-08-11T06:17:44;11.90;;;8.55;;
51556;SDS011;38766;53.194;5.532;2022-08-11T06:20:11;12.07;;;8.45;;
51556;SDS011;38766;53.194;5.532;2022-08-11T06:22:40;14.85;;;7.82;;
51556;SDS011;38766;53.194;5.532;2022-08-11T06:25:09;13.38;;;9.07;;
51556;SDS011;38766;53.194;5.532;2022-08-11T06:27:36;13.73;;;8.90;;
51556;SDS011;38766;53.194;5.532;2022-08-11T06:30:06;11.77;;;8.10;;
51556;SDS011;38766;53.194;5.532;2022-08-11T06:32:38;13.02;;;8.60;;
51556;SDS011;38766;53.194;5.532;2022-08-11T06:37:48;12.02;;;7.75;;
51556;SDS011;38766;53.194;5.532;2022-08-11T06:43:17;11.95;;;7.50;;
51556;SDS011;38766;53.194;5.532;2022-08-11T06:48:27;11.77;;;7.95;;
51556;SDS011;38766;53.194;5.532;2022-08-11T06:50:56;9.65;;;7.43;;
51556;SDS011;38766;53.194;5.532;2022-08-11T06:56:07;11.15;;;7.32;;
51556;SDS011;38766;53.194;5.532;2022-08-11T06:58:52;10.45;;;7.28;;
51556;SDS011;38766;53.194;5.532;2022-08-11T07:01:43;9.95;;;7.03;;
51556;SDS011;38766;53.194;5.532;2022-08-11T07:04:12;13.35;;;6.57;;
51556;SDS011;38766;53.194;5.532;2022-08-11T07:07:05;7.03;;;5.80;;
51556;SDS011;38766;53.194;5.532;2022-08-11T07:13:03;7.53;;;5.57;;
51556;SDS011;38766;53.194;5.532;2022-08-11T07:15:49;8.25;;;5.80;;
51556;SDS011;38766;53.194;5.532;2022-08-11T07:18:21;7.50;;;5.60;;
51556;SDS011;38766;53.194;5.532;2022-08-11T07:21:26;9.80;;;5.85;;
51556;SDS011;38766;53.194;5.532;2022-08-11T07:24:16;10.40;;;5.47;;
51556;SDS011;38766;53.194;5.532;2022-08-11T07:27:07;7.80;;;5.90;;
51556;SDS011;38766;53.194;5.532;2022-08-11T07:30:03;8.45;;;5.50;;
51556;SDS011;38766;53.194;5.532;2022-08-11T07:32:34;8.65;;;5.28;;
51556;SDS011;38766;53.194;5.532;2022-08-11T07:35:17;7.88;;;5.10;;
51556;SDS011;38766;53.194;5.532;2022-08-11T07:37:47;7.15;;;5.25;;
51556;SDS011;38766;53.194;5.532;2022-08-11T07:40:21;7.03;;;5.32;;
51556;SDS011;38766;53.194;5.532;2022-08-11T07:42:47;7.57;;;5.15;;
51556;SDS011;38766;53.194;5.532;2022-08-11T07:45:14;6.85;;;5.25;;
51556;SDS011;38766;53.194;5.532;2022-08-11T07:47:59;6.90;;;4.50;;
51556;SDS011;38766;53.194;5.532;2022-08-11T07:50:44;6.43;;;4.80;;
51556;SDS011;38766;53.194;5.532;2022-08-11T07:53:29;5.40;;;4.45;;
51556;SDS011;38766;53.194;5.532;2022-08-11T07:55:57;7.88;;;5.38;;
51556;SDS011;38766;53.194;5.532;2022-08-11T07:58:24;7.25;;;4.38;;
51556;SDS011;38766;53.194;5.532;2022-08-11T08:01:10;5.82;;;4.43;;
51556;SDS011;38766;53.194;5.532;2022-08-11T08:03:57;6.00;;;4.20;;
51556;SDS011;38766;53.194;5.532;2022-08-11T08:06:42;6.97;;;4.10;;
51556;SDS011;38766;53.194;5.532;2022-08-11T08:09:28;6.93;;;4.45;;
51556;SDS011;38766;53.194;5.532;2022-08-11T08:12:18;7.57;;;3.75;;
51556;SDS011;38766;53.194;5.532;2022-08-11T08:15:05;8.75;;;4.35;;
51556;SDS011;38766;53.194;5.532;2022-08-11T08:17:51;5.22;;;3.55;;
51556;SDS011;38766;53.194;5.532;2022-08-11T08:20:22;4.90;;;3.78;;
51556;SDS011;38766;53.194;5.532;2022-08-11T08:22:51;5.75;;;3.65;;
51556;SDS011;38766;53.194;5.532;2022-08-11T08:25:21;7.72;;;3.65;;
51556;SDS011;38766;53.194;5.532;2022-08-11T08:27:48;8.85;;;4.28;;
51556;SDS011;38766;53.194;5.532;2022-08-11T08:30:15;4.78;;;3.97;;
51556;SDS011;38766;53.194;5.532;2022-08-11T08:33:00;6.60;;;3.92;;
51556;SDS011;38766;53.194;5.532;2022-08-11T08:35:27;6.78;;;4.32;;
51556;SDS011;38766;53.194;5.532;2022-08-11T08:37:56;7.60;;;4.00;;
51556;SDS011;38766;53.194;5.532;2022-08-11T08:40:23;5.97;;;3.80;;
51556;SDS011;38766;53.194;5.532;2022-08-11T08:43:12;5.05;;;3.05;;
51556;SDS011;38766;53.194;5.532;2022-08-11T08:45:39;4.65;;;3.25;;
51556;SDS011;38766;53.194;5.532;2022-08-11T08:48:11;4.68;;;3.10;;
51556;SDS011;38766;53.194;5.532;2022-08-11T08:50:52;4.88;;;2.85;;
51556;SDS011;38766;53.194;5.532;2022-08-11T08:53:52;5.78;;;3.00;;
51556;SDS011;38766;53.194;5.532;2022-08-11T08:56:19;7.57;;;3.28;;
51556;SDS011;38766;53.194;5.532;2022-08-11T08:58:52;3.47;;;3.00;;
51556;SDS011;38766;53.194;5.532;2022-08-11T09:01:18;5.50;;;3.08;;
51556;SDS011;38766;53.194;5.532;2022-08-11T09:03:46;5.00;;;2.80;;
51556;SDS011;38766;53.194;5.532;2022-08-11T09:06:13;2.63;;;2.42;;
51556;SDS011;38766;53.194;5.532;2022-08-11T09:08:41;7.63;;;2.90;;
51556;SDS011;38766;53.194;5.532;2022-08-11T09:11:08;3.63;;;2.67;;
51556;SDS011;38766;53.194;5.532;2022-08-11T09:13:54;6.78;;;2.67;;
51556;SDS011;38766;53.194;5.532;2022-08-11T09:16:20;4.00;;;2.60;;
51556;SDS011;38766;53.194;5.532;2022-08-11T09:18:47;3.30;;;2.85;;
51556;SDS011;38766;53.194;5.532;2022-08-11T09:21:14;3.05;;;2.72;;
51556;SDS011;38766;53.194;5.532;2022-08-11T09:23:41;4.15;;;2.15;;
51556;SDS011;38766;53.194;5.532;2022-08-11T09:26:34;5.20;;;2.50;;
51556;SDS011;38766;53.194;5.532;2022-08-11T09:29:19;3.72;;;2.50;;
51556;SDS011;38766;53.194;5.532;2022-08-11T09:31:46;5.50;;;2.80;;
51556;SDS011;38766;53.194;5.532;2022-08-11T09:34:12;4.38;;;3.03;;
51556;SDS011;38766;53.194;5.532;2022-08-11T09:36:39;6.28;;;2.50;;
51556;SDS011;38766;53.194;5.532;2022-08-11T09:39:27;4.65;;;2.00;;
51556;SDS011;38766;53.194;5.532;2022-08-11T09:42:13;4.75;;;2.30;;
51556;SDS011;38766;53.194;5.532;2022-08-11T09:44:40;3.58;;;2.35;;
51556;SDS011;38766;53.194;5.532;2022-08-11T09:47:19;3.63;;;1.92;;
51556;SDS011;38766;53.194;5.532;2022-08-11T09:50:00;2.78;;;2.00;;
51556;SDS011;38766;53.194;5.532;2022-08-11T09:52:27;3.08;;;2.15;;
51556;SDS011;38766;53.194;5.532;2022-08-11T09:54:56;3.08;;;2.20;;
51556;SDS011;38766;53.194;5.532;2022-08-11T09:57:23;3.78;;;1.98;;
51556;SDS011;38766;53.194;5.532;2022-08-11T10:00:09;4.72;;;2.25;;
51556;SDS011;38766;53.194;5.532;2022-08-11T10:02:45;4.20;;;2.08;;
51556;SDS011;38766;53.194;5.532;2022-08-11T10:05:17;7.70;;;2.03;;
51556;SDS011;38766;53.194;5.532;2022-08-11T10:08:03;5.28;;;1.98;;
51556;SDS011;38766;53.194;5.532;2022-08-11T10:10:33;3.53;;;2.22;;
51556;SDS011;38766;53.194;5.532;2022-08-11T10:13:02;5.88;;;1.85;;
51556;SDS011;38766;53.194;5.532;2022-08-11T10:15:30;2.75;;;1.80;;
51556;SDS011;38766;53.194;5.532;2022-08-11T10:18:04;5.00;;;2.20;;
51556;SDS011;38766;53.194;5.532;2022-08-11T10:20:52;3.67;;;2.08;;
51556;SDS011;38766;53.194;5.532;2022-08-11T10:23:22;5.57;;;2.10;;
51556;SDS011;38766;53.194;5.532;2022-08-11T10:26:09;2.28;;;2.00;;
51556;SDS011;38766;53.194;5.532;2022-08-11T10:28:54;3.78;;;2.05;;
51556;SDS011;38766;53.194;5.532;2022-08-11T10:31:20;6.30;;;2.30;;
51556;SDS011;38766;53.194;5.532;2022-08-11T10:34:06;3.50;;;1.90;;
51556;SDS011;38766;53.194;5.532;2022-08-11T10:36:34;4.20;;;1.95;;
51556;SDS011;38766;53.194;5.532;2022-08-11T10:39:07;3.05;;;2.30;;
51556;SDS011;38766;53.194;5.532;2022-08-11T10:41:33;2.97;;;2.25;;
51556;SDS011;38766;53.194;5.532;2022-08-11T10:44:18;2.63;;;2.10;;
51556;SDS011;38766;53.194;5.532;2022-08-11T10:46:46;4.60;;;2.08;;
51556;SDS011;38766;53.194;5.532;2022-08-11T10:49:31;4.35;;;2.00;;
51556;SDS011;38766;53.194;5.532;2022-08-11T10:51:57;4.68;;;2.40;;
51556;SDS011;38766;53.194;5.532;2022-08-11T10:54:42;3.42;;;2.22;;
51556;SDS011;38766;53.194;5.532;2022-08-11T10:57:27;3.45;;;2.00;;
51556;SDS011;38766;53.194;5.532;2022-08-11T11:00:13;6.68;;;1.90;;
51556;SDS011;38766;53.194;5.532;2022-08-11T11:02:40;3.70;;;2.05;;
51556;SDS011;38766;53.194;5.532;2022-08-11T11:07:43;2.22;;;2.03;;
51556;SDS011;38766;53.194;5.532;2022-08-11T11:10:16;3.13;;;2.20;;
51556;SDS011;38766;53.194;5.532;2022-08-11T11:12:45;3.88;;;1.95;;
51556;SDS011;38766;53.194;5.532;2022-08-11T11:15:33;4.07;;;2.15;;
51556;SDS011;38766;53.194;5.532;2022-08-11T11:18:28;3.88;;;2.10;;
51556;SDS011;38766;53.194;5.532;2022-08-11T11:23:34;6.07;;;2.05;;
51556;SDS011;38766;53.194;5.532;2022-08-11T11:32:08;3.83;;;2.55;;
51556;SDS011;38766;53.194;5.532;2022-08-11T11:37:23;3.35;;;2.17;;
51556;SDS011;38766;53.194;5.532;2022-08-11T11:39:50;3.30;;;2.20;;
51556;SDS011;38766;53.194;5.532;2022-08-11T11:42:19;2.30;;;2.10;;
51556;SDS011;38766;53.194;5.532;2022-08-11T11:44:46;4.75;;;2.30;;
51556;SDS011;38766;53.194;5.532;2022-08-11T11:47:12;2.13;;;1.90;;
51556;SDS011;38766;53.194;5.532;2022-08-11T11:49:40;2.72;;;1.95;;
51556;SDS011;38766;53.194;5.532;2022-08-11T11:52:08;2.67;;;2.15;;
51556;SDS011;38766;53.194;5.532;2022-08-11T11:54:38;2.88;;;2.10;;
51556;SDS011;38766;53.194;5.532;2022-08-11T11:57:06;2.72;;;2.03;;
51556;SDS011;38766;53.194;5.532;2022-08-11T11:59:51;3.33;;;2.28;;
51556;SDS011;38766;53.194;5.532;2022-08-11T12:02:37;2.97;;;2.38;;
51556;SDS011;38766;53.194;5.532;2022-08-11T12:05:04;7.50;;;2.50;;
51556;SDS011;38766;53.194;5.532;2022-08-11T12:07:32;5.55;;;2.40;;
51556;SDS011;38766;53.194;5.532;2022-08-11T12:10:18;4.90;;;2.40;;
51556;SDS011;38766;53.194;5.532;2022-08-11T12:12:44;4.10;;;2.30;;
51556;SDS011;38766;53.194;5.532;2022-08-11T12:15:29;2.83;;;1.95;;
51556;SDS011;38766;53.194;5.532;2022-08-11T12:17:55;2.28;;;1.98;;
51556;SDS011;38766;53.194;5.532;2022-08-11T12:20:22;2.20;;;2.00;;
51556;SDS011;38766;53.194;5.532;2022-08-11T12:22:48;3.20;;;2.20;;
51556;SDS011;38766;53.194;5.532;2022-08-11T12:25:32;2.88;;;2.20;;
51556;SDS011;38766;53.194;5.532;2022-08-11T12:28:18;3.72;;;2.22;;
51556;SDS011;38766;53.194;5.532;2022-08-11T12:30:46;3.17;;;2.33;;
51556;SDS011;38766;53.194;5.532;2022-08-11T12:33:14;2.72;;;2.47;;
51556;SDS011;38766;53.194;5.532;2022-08-11T12:35:40;3.10;;;2.20;;
51556;SDS011;38766;53.194;5.532;2022-08-11T12:38:07;4.32;;;2.72;;
51556;SDS011;38766;53.194;5.532;2022-08-11T12:40:34;9.52;;;2.70;;
51556;SDS011;38766;53.194;5.532;2022-08-11T12:43:20;3.65;;;2.50;;
51556;SDS011;38766;53.194;5.532;2022-08-11T12:46:08;4.90;;;2.40;;
51556;SDS011;38766;53.194;5.532;2022-08-11T12:48:40;3.70;;;2.42;;
51556;SDS011;38766;53.194;5.532;2022-08-11T12:51:31;6.40;;;2.40;;
51556;SDS011;38766;53.194;5.532;2022-08-11T12:54:20;2.78;;;2.25;;
51556;SDS011;38766;53.194;5.532;2022-08-11T12:57:00;5.30;;;2.60;;
51556;SDS011;38766;53.194;5.532;2022-08-11T12:59:48;4.43;;;2.30;;
51556;SDS011;38766;53.194;5.532;2022-08-11T13:02:34;5.57;;;2.50;;
51556;SDS011;38766;53.194;5.532;2022-08-11T13:05:18;4.88;;;2.50;;
51556;SDS011;38766;53.194;5.532;2022-08-11T13:07:46;5.40;;;2.35;;
51556;SDS011;38766;53.194;5.532;2022-08-11T13:10:13;7.05;;;2.53;;
51556;SDS011;38766;53.194;5.532;2022-08-11T13:13:04;5.20;;;2.45;;
51556;SDS011;38766;53.194;5.532;2022-08-11T13:15:31;3.30;;;2.35;;
51556;SDS011;38766;53.194;5.532;2022-08-11T13:17:57;5.13;;;2.50;;
51556;SDS011;38766;53.194;5.532;2022-08-11T13:20:24;4.20;;;2.50;;
51556;SDS011;38766;53.194;5.532;2022-08-11T13:22:54;4.78;;;2.50;;
51556;SDS011;38766;53.194;5.532;2022-08-11T13:25:23;6.47;;;2.10;;
51556;SDS011;38766;53.194;5.532;2022-08-11T13:27:51;5.97;;;2.60;;
51556;SDS011;38766;53.194;5.532;2022-08-11T13:30:21;4.40;;;2.40;;
51556;SDS011;38766;53.194;5.532;2022-08-11T13:33:08;4.78;;;2.70;;
51556;SDS011;38766;53.194;5.532;2022-08-11T13:35:35;4.40;;;2.38;;
51556;SDS011;38766;53.194;5.532;2022-08-11T13:38:01;6.07;;;2.20;;
51556;SDS011;38766;53.194;5.532;2022-08-11T13:40:28;6.32;;;2.10;;
51556;SDS011;38766;53.194;5.532;2022-08-11T13:42:56;3.50;;;2.38;;
51556;SDS011;38766;53.194;5.532;2022-08-11T13:45:23;4.60;;;2.40;;
51556;SDS011;38766;53.194;5.532;2022-08-11T13:47:55;7.07;;;2.50;;
51556;SDS011;38766;53.194;5.532;2022-08-11T13:50:23;3.78;;;2.58;;
51556;SDS011;38766;53.194;5.532;2022-08-11T13:53:10;4.13;;;2.00;;
51556;SDS011;38766;53.194;5.532;2022-08-11T13:55:40;2.90;;;2.13;;
51556;SDS011;38766;53.194;5.532;2022-08-11T13:58:08;9.32;;;3.03;;
51556;SDS011;38766;53.194;5.532;2022-08-11T14:00:36;3.10;;;2.53;;
51556;SDS011;38766;53.194;5.532;2022-08-11T14:03:02;5.85;;;2.78;;
51556;SDS011;38766;53.194;5.532;2022-08-11T14:05:36;3.88;;;2.63;;
51556;SDS011;38766;53.194;5.532;2022-08-11T14:08:09;3.88;;;2.60;;
51556;SDS011;38766;53.194;5.532;2022-08-11T14:10:38;3.50;;;2.47;;
51556;SDS011;38766;53.194;5.532;2022-08-11T14:13:09;3.85;;;2.63;;
51556;SDS011;38766;53.194;5.532;2022-08-11T14:16:07;4.20;;;2.20;;
51556;SDS011;38766;53.194;5.532;2022-08-11T14:18:39;6.43;;;2.60;;
51556;SDS011;38766;53.194;5.532;2022-08-11T14:21:09;2.80;;;2.05;;
51556;SDS011;38766;53.194;5.532;2022-08-11T14:23:58;5.97;;;2.38;;
51556;SDS011;38766;53.194;5.532;2022-08-11T14:26:25;5.85;;;2.60;;
51556;SDS011;38766;53.194;5.532;2022-08-11T14:29:08;6.30;;;2.10;;
51556;SDS011;38766;53.194;5.532;2022-08-11T14:31:37;4.88;;;2.65;;
51556;SDS011;38766;53.194;5.532;2022-08-11T14:34:08;2.60;;;2.20;;
51556;SDS011;38766;53.194;5.532;2022-08-11T14:36:38;6.97;;;2.00;;
51556;SDS011;38766;53.194;5.532;2022-08-11T14:39:08;2.20;;;2.00;;
51556;SDS011;38766;53.194;5.532;2022-08-11T14:41:40;3.05;;;2.13;;
51556;SDS011;38766;53.194;5.532;2022-08-11T14:44:26;2.78;;;1.90;;
51556;SDS011;38766;53.194;5.532;2022-08-11T14:47:11;7.25;;;2.10;;
51556;SDS011;38766;53.194;5.532;2022-08-11T14:49:41;4.05;;;2.10;;
51556;SDS011;38766;53.194;5.532;2022-08-11T14:52:09;9.48;;;2.53;;
51556;SDS011;38766;53.194;5.532;2022-08-11T14:54:44;4.38;;;2.35;;
51556;SDS011;38766;53.194;5.532;2022-08-11T14:57:30;2.30;;;2.08;;
51556;SDS011;38766;53.194;5.532;2022-08-11T14:59:59;3.90;;;1.92;;
51556;SDS011;38766;53.194;5.532;2022-08-11T15:02:28;8.73;;;2.10;;
51556;SDS011;38766;53.194;5.532;2022-08-11T15:05:13;3.00;;;1.98;;
51556;SDS011;38766;53.194;5.532;2022-08-11T15:07:39;5.78;;;2.30;;
51556;SDS011;38766;53.194;5.532;2022-08-11T15:10:06;5.28;;;2.00;;
51556;SDS011;38766;53.194;5.532;2022-08-11T15:12:33;8.02;;;2.08;;
51556;SDS011;38766;53.194;5.532;2022-08-11T15:15:04;6.50;;;2.13;;
51556;SDS011;38766;53.194;5.532;2022-08-11T15:17:53;3.78;;;2.00;;
51556;SDS011;38766;53.194;5.532;2022-08-11T15:20:22;3.42;;;2.17;;
51556;SDS011;38766;53.194;5.532;2022-08-11T15:23:08;3.90;;;1.83;;
51556;SDS011;38766;53.194;5.532;2022-08-11T15:25:56;3.00;;;2.20;;
51556;SDS011;38766;53.194;5.532;2022-08-11T15:28:25;4.57;;;1.90;;
51556;SDS011;38766;53.194;5.532;2022-08-11T15:31:12;1.95;;;1.73;;
51556;SDS011;38766;53.194;5.532;2022-08-11T15:34:00;4.47;;;2.15;;
51556;SDS011;38766;53.194;5.532;2022-08-11T15:36:46;5.32;;;2.03;;
51556;SDS011;38766;53.194;5.532;2022-08-11T15:39:36;3.40;;;1.90;;
51556;SDS011;38766;53.194;5.532;2022-08-11T15:42:29;6.40;;;1.75;;
51556;SDS011;38766;53.194;5.532;2022-08-11T15:45:14;2.78;;;1.92;;
51556;SDS011;38766;53.194;5.532;2022-08-11T15:48:09;4.63;;;2.00;;
51556;SDS011;38766;53.194;5.532;2022-08-11T15:53:11;8.57;;;2.45;;
51556;SDS011;38766;53.194;5.532;2022-08-11T15:55:44;2.60;;;2.00;;
51556;SDS011;38766;53.194;5.532;2022-08-11T15:58:11;4.35;;;2.05;;
51556;SDS011;38766;53.194;5.532;2022-08-11T16:00:56;6.85;;;1.88;;
51556;SDS011;38766;53.194;5.532;2022-08-11T16:04:02;3.88;;;1.77;;
51556;SDS011;38766;53.194;5.532;2022-08-11T16:06:59;7.60;;;2.17;;
51556;SDS011;38766;53.194;5.532;2022-08-11T16:09:35;2.53;;;2.20;;
51556;SDS011;38766;53.194;5.532;2022-08-11T16:12:07;3.55;;;2.35;;
51556;SDS011;38766;53.194;5.532;2022-08-11T16:14:36;2.30;;;1.90;;
51556;SDS011;38766;53.194;5.532;2022-08-11T16:17:25;5.35;;;1.95;;
51556;SDS011;38766;53.194;5.532;2022-08-11T16:19:54;2.10;;;1.90;;
51556;SDS011;38766;53.194;5.532;2022-08-11T16:22:23;10.95;;;2.33;;
51556;SDS011;38766;53.194;5.532;2022-08-11T16:25:04;2.35;;;2.00;;
51556;SDS011;38766;53.194;5.532;2022-08-11T16:27:39;3.00;;;2.00;;
51556;SDS011;38766;53.194;5.532;2022-08-11T16:30:08;5.43;;;2.03;;
51556;SDS011;38766;53.194;5.532;2022-08-11T16:32:35;2.95;;;1.90;;
51556;SDS011;38766;53.194;5.532;2022-08-11T16:35:05;3.65;;;2.00;;
51556;SDS011;38766;53.194;5.532;2022-08-11T16:37:52;6.20;;;2.10;;
51556;SDS011;38766;53.194;5.532;2022-08-11T16:40:39;4.90;;;2.00;;
51556;SDS011;38766;53.194;5.532;2022-08-11T16:43:06;3.67;;;1.80;;
51556;SDS011;38766;53.194;5.532;2022-08-11T16:45:54;3.13;;;2.30;;
51556;SDS011;38766;53.194;5.532;2022-08-11T16:48:40;6.00;;;1.90;;
51556;SDS011;38766;53.194;5.532;2022-08-11T16:51:07;5.22;;;2.30;;
51556;SDS011;38766;53.194;5.532;2022-08-11T16:53:36;5.03;;;2.10;;
51556;SDS011;38766;53.194;5.532;2022-08-11T16:56:03;2.22;;;2.00;;
51556;SDS011;38766;53.194;5.532;2022-08-11T16:58:31;5.50;;;2.03;;
51556;SDS011;38766;53.194;5.532;2022-08-11T17:01:19;3.00;;;2.05;;
51556;SDS011;38766;53.194;5.532;2022-08-11T17:03:51;4.50;;;2.00;;
51556;SDS011;38766;53.194;5.532;2022-08-11T17:06:40;8.70;;;2.78;;
51556;SDS011;38766;53.194;5.532;2022-08-11T17:09:28;3.88;;;1.85;;
51556;SDS011;38766;53.194;5.532;2022-08-11T17:12:17;5.93;;;1.90;;
51556;SDS011;38766;53.194;5.532;2022-08-11T17:15:05;4.57;;;1.83;;
51556;SDS011;38766;53.194;5.532;2022-08-11T17:17:55;4.88;;;2.28;;
51556;SDS011;38766;53.194;5.532;2022-08-11T17:20:23;2.83;;;2.00;;
51556;SDS011;38766;53.194;5.532;2022-08-11T17:22:51;2.53;;;1.90;;
51556;SDS011;38766;53.194;5.532;2022-08-11T17:25:37;2.58;;;1.80;;
51556;SDS011;38766;53.194;5.532;2022-08-11T17:28:03;2.83;;;2.08;;
51556;SDS011;38766;53.194;5.532;2022-08-11T17:30:30;2.97;;;2.38;;
51556;SDS011;38766;53.194;5.532;2022-08-11T17:33:15;3.90;;;1.90;;
51556;SDS011;38766;53.194;5.532;2022-08-11T17:36:00;2.13;;;1.92;;
51556;SDS011;38766;53.194;5.532;2022-08-11T17:38:28;3.55;;;1.83;;
51556;SDS011;38766;53.194;5.532;2022-08-11T17:40:55;2.83;;;1.98;;
51556;SDS011;38766;53.194;5.532;2022-08-11T17:43:43;3.08;;;2.05;;
51556;SDS011;38766;53.194;5.532;2022-08-11T17:46:28;3.58;;;2.00;;
51556;SDS011;38766;53.194;5.532;2022-08-11T17:49:13;3.28;;;1.90;;
51556;SDS011;38766;53.194;5.532;2022-08-11T17:51:40;4.63;;;2.05;;
51556;SDS011;38766;53.194;5.532;2022-08-11T17:54:27;2.67;;;1.70;;
51556;SDS011;38766;53.194;5.532;2022-08-11T17:57:13;7.32;;;2.00;;
51556;SDS011;38766;53.194;5.532;2022-08-11T17:59:59;3.33;;;2.00;;
51556;SDS011;38766;53.194;5.532;2022-08-11T18:05:10;4.63;;;2.25;;
51556;SDS011;38766;53.194;5.532;2022-08-11T18:07:37;3.33;;;2.17;;
51556;SDS011;38766;53.194;5.532;2022-08-11T18:10:26;3.13;;;2.17;;
51556;SDS011;38766;53.194;5.532;2022-08-11T18:13:12;3.00;;;1.80;;
51556;SDS011;38766;53.194;5.532;2022-08-11T18:15:57;4.35;;;2.25;;
51556;SDS011;38766;53.194;5.532;2022-08-11T18:18:41;2.50;;;2.20;;
51556;SDS011;38766;53.194;5.532;2022-08-11T18:24:11;4.78;;;2.38;;
51556;SDS011;38766;53.194;5.532;2022-08-11T18:26:58;4.97;;;2.08;;
51556;SDS011;38766;53.194;5.532;2022-08-11T18:29:44;4.72;;;2.40;;
51556;SDS011;38766;53.194;5.532;2022-08-11T18:32:31;3.10;;;2.15;;
51556;SDS011;38766;53.194;5.532;2022-08-11T18:35:19;5.97;;;2.15;;
51556;SDS011;38766;53.194;5.532;2022-08-11T18:38:05;7.15;;;2.05;;
51556;SDS011;38766;53.194;5.532;2022-08-11T18:40:52;3.88;;;2.30;;
51556;SDS011;38766;53.194;5.532;2022-08-11T18:43:38;4.25;;;2.45;;
51556;SDS011;38766;53.194;5.532;2022-08-11T18:46:26;2.92;;;1.92;;
51556;SDS011;38766;53.194;5.532;2022-08-11T18:49:16;4.30;;;2.53;;
51556;SDS011;38766;53.194;5.532;2022-08-11T18:52:03;4.32;;;2.10;;
51556;SDS011;38766;53.194;5.532;2022-08-11T18:54:50;3.35;;;2.50;;
51556;SDS011;38766;53.194;5.532;2022-08-11T18:57:37;3.70;;;2.10;;
51556;SDS011;38766;53.194;5.532;2022-08-11T19:00:23;2.72;;;2.22;;
51556;SDS011;38766;53.194;5.532;2022-08-11T19:03:13;4.53;;;2.25;;
51556;SDS011;38766;53.194;5.532;2022-08-11T19:06:00;4.82;;;2.35;;
51556;SDS011;38766;53.194;5.532;2022-08-11T19:08:50;8.80;;;2.10;;
51556;SDS011;38766;53.194;5.532;2022-08-11T19:11:36;5.75;;;2.08;;
51556;SDS011;38766;53.194;5.532;2022-08-11T19:14:21;6.38;;;2.85;;
51556;SDS011;38766;53.194;5.532;2022-08-11T19:17:07;6.60;;;2.20;;
51556;SDS011;38766;53.194;5.532;2022-08-11T19:19:53;5.78;;;2.65;;
51556;SDS011;38766;53.194;5.532;2022-08-11T19:22:39;6.05;;;2.67;;
51556;SDS011;38766;53.194;5.532;2022-08-11T19:25:26;10.18;;;2.40;;
51556;SDS011;38766;53.194;5.532;2022-08-11T19:28:11;4.05;;;2.67;;